sensor_id;sensor_type;location;lat;lon;timestamp;pressure;altitude;pressure_sealevel;temperature
20736;BMP180;10528;52.124;5.196;2024-01-30T00:00:34;102462.00;;;14.00
20736;BMP180;10528;52.124;5.196;2024-01-30T00:03:01;102458.00;;;14.00
20736;BMP180;10528;52.124;5.196;2024-01-30T00:05:28;102454.00;;;14.00
20736;BMP180;10528;52.124;5.196;2024-01-30T00:07:55;102458.00;;;14.00
20736;BMP180;10528;52.124;5.196;2024-01-30T00:10:22;102446.00;;;14.00
20736;BMP180;10528;52.124;5.196;2024-01-30T00:12:49;102450.00;;;14.00
20736;BMP180;10528;52.124;5.196;2024-01-30T00:15:16;102450.00;;;14.00
20736;BMP180;10528;52.124;5.196;2024-01-30T00:17:43;102451.00;;;14.00
20736;BMP180;10528;52.124;5.196;2024-01-30T00:20:10;102453.00;;;14.00
20736;BMP180;10528;52.124;5.196;2024-01-30T00:22:37;102447.00;;;14.00
20736;BMP180;10528;52.124;5.196;2024-01-30T00:25:05;102448.00;;;14.00
20736;BMP180;10528;52.124;5.196;2024-01-30T00:27:31;102447.00;;;14.00
20736;BMP180;10528;52.124;5.196;2024-01-30T00:29:58;102448.00;;;14.00
20736;BMP180;10528;52.124;5.196;2024-01-30T00:32:25;102446.00;;;14.00
20736;BMP180;10528;52.124;5.196;2024-01-30T00:34:52;102436.00;;;14.00
20736;BMP180;10528;52.124;5.196;2024-01-30T00:37:19;102439.00;;;14.00
20736;BMP180;10528;52.124;5.196;2024-01-30T00:39:47;102446.00;;;14.00
20736;BMP180;10528;52.124;5.196;2024-01-30T00:42:14;102428.00;;;14.00
20736;BMP180;10528;52.124;5.196;2024-01-30T00:44:40;102442.00;;;14.00
20736;BMP180;10528;52.124;5.196;2024-01-30T00:47:08;102446.00;;;14.00
20736;BMP180;10528;52.124;5.196;2024-01-30T00:49:35;102441.00;;;14.00
20736;BMP180;10528;52.124;5.196;2024-01-30T00:52:03;102438.00;;;14.00
20736;BMP180;10528;52.124;5.196;2024-01-30T00:54:30;102434.00;;;14.00
20736;BMP180;10528;52.124;5.196;2024-01-30T00:56:57;102438.00;;;14.00
20736;BMP180;10528;52.124;5.196;2024-01-30T00:59:24;102431.00;;;14.00
20736;BMP180;10528;52.124;5.196;2024-01-30T01:01:51;102437.00;;;14.00
20736;BMP180;10528;52.124;5.196;2024-01-30T01:04:18;102440.00;;;14.00
20736;BMP180;10528;52.124;5.196;2024-01-30T01:06:45;102440.00;;;14.00
20736;BMP180;10528;52.124;5.196;2024-01-30T01:09:12;102421.00;;;14.00
20736;BMP180;10528;52.124;5.196;2024-01-30T01:11:39;102432.00;;;14.00
20736;BMP180;10528;52.124;5.196;2024-01-30T01:14:06;102413.00;;;14.00
20736;BMP180;10528;52.124;5.196;2024-01-30T01:16:34;102405.00;;;13.90
20736;BMP180;10528;52.124;5.196;2024-01-30T01:19:00;102414.00;;;13.90
20736;BMP180;10528;52.124;5.196;2024-01-30T01:21:28;102413.00;;;13.90
20736;BMP180;10528;52.124;5.196;2024-01-30T01:23:55;102409.00;;;13.90
20736;BMP180;10528;52.124;5.196;2024-01-30T01:26:23;102415.00;;;13.90
20736;BMP180;10528;52.124;5.196;2024-01-30T01:28:50;102423.00;;;13.90
20736;BMP180;10528;52.124;5.196;2024-01-30T01:31:17;102412.00;;;13.90
20736;BMP180;10528;52.124;5.196;2024-01-30T01:33:45;102410.00;;;13.90
20736;BMP180;10528;52.124;5.196;2024-01-30T01:36:13;102414.00;;;13.80
20736;BMP180;10528;52.124;5.196;2024-01-30T01:38:40;102412.00;;;13.90
20736;BMP180;10528;52.124;5.196;2024-01-30T01:41:07;102410.00;;;13.90
20736;BMP180;10528;52.124;5.196;2024-01-30T01:43:34;102412.00;;;13.90
20736;BMP180;10528;52.124;5.196;2024-01-30T01:46:02;102416.00;;;13.80
20736;BMP180;10528;52.124;5.196;2024-01-30T01:48:29;102415.00;;;13.80
20736;BMP180;10528;52.124;5.196;2024-01-30T01:50:57;102402.00;;;13.80
20736;BMP180;10528;52.124;5.196;2024-01-30T01:53:25;102404.00;;;13.80
20736;BMP180;10528;52.124;5.196;2024-01-30T01:55:54;102400.00;;;13.80
20736;BMP180;10528;52.124;5.196;2024-01-30T01:58:21;102397.00;;;13.80
20736;BMP180;10528;52.124;5.196;2024-01-30T02:00:51;102397.00;;;13.80
20736;BMP180;10528;52.124;5.196;2024-01-30T02:03:18;102402.00;;;13.80
20736;BMP180;10528;52.124;5.196;2024-01-30T02:05:50;102394.00;;;13.80
20736;BMP180;10528;52.124;5.196;2024-01-30T02:08:17;102408.00;;;13.80
20736;BMP180;10528;52.124;5.196;2024-01-30T02:10:44;102408.00;;;13.80
20736;BMP180;10528;52.124;5.196;2024-01-30T02:13:12;102403.00;;;13.80
20736;BMP180;10528;52.124;5.196;2024-01-30T02:15:39;102408.00;;;13.80
20736;BMP180;10528;52.124;5.196;2024-01-30T02:18:06;102405.00;;;13.70
20736;BMP180;10528;52.124;5.196;2024-01-30T02:20:35;102409.00;;;13.70
20736;BMP180;10528;52.124;5.196;2024-01-30T02:23:04;102403.00;;;13.70
20736;BMP180;10528;52.124;5.196;2024-01-30T02:25:36;102411.00;;;13.80
20736;BMP180;10528;52.124;5.196;2024-01-30T02:28:04;102412.00;;;13.80
20736;BMP180;10528;52.124;5.196;2024-01-30T02:30:30;102413.00;;;13.80
20736;BMP180;10528;52.124;5.196;2024-01-30T02:32:57;102407.00;;;13.80
20736;BMP180;10528;52.124;5.196;2024-01-30T02:35:24;102401.00;;;13.80
20736;BMP180;10528;52.124;5.196;2024-01-30T02:37:51;102394.00;;;13.80
20736;BMP180;10528;52.124;5.196;2024-01-30T02:40:18;102392.00;;;13.80
20736;BMP180;10528;52.124;5.196;2024-01-30T02:42:45;102371.00;;;13.80
20736;BMP180;10528;52.124;5.196;2024-01-30T02:45:13;102387.00;;;13.80
20736;BMP180;10528;52.124;5.196;2024-01-30T02:47:40;102392.00;;;13.80
20736;BMP180;10528;52.124;5.196;2024-01-30T02:50:08;102398.00;;;13.80
20736;BMP180;10528;52.124;5.196;2024-01-30T02:52:35;102378.00;;;13.80
20736;BMP180;10528;52.124;5.196;2024-01-30T02:55:02;102376.00;;;13.80
20736;BMP180;10528;52.124;5.196;2024-01-30T02:57:30;102384.00;;;13.80
20736;BMP180;10528;52.124;5.196;2024-01-30T02:59:57;102374.00;;;13.70
20736;BMP180;10528;52.124;5.196;2024-01-30T03:02:24;102377.00;;;13.70
20736;BMP180;10528;52.124;5.196;2024-01-30T03:04:51;102381.00;;;13.70
20736;BMP180;10528;52.124;5.196;2024-01-30T03:07:18;102378.00;;;13.70
20736;BMP180;10528;52.124;5.196;2024-01-30T03:09:45;102382.00;;;13.70
20736;BMP180;10528;52.124;5.196;2024-01-30T03:12:12;102369.00;;;13.70
20736;BMP180;10528;52.124;5.196;2024-01-30T03:14:40;102366.00;;;13.70
20736;BMP180;10528;52.124;5.196;2024-01-30T03:17:07;102374.00;;;13.70
20736;BMP180;10528;52.124;5.196;2024-01-30T03:19:34;102364.00;;;13.70
20736;BMP180;10528;52.124;5.196;2024-01-30T03:22:01;102368.00;;;13.70
20736;BMP180;10528;52.124;5.196;2024-01-30T03:24:28;102369.00;;;13.80
20736;BMP180;10528;52.124;5.196;2024-01-30T03:26:55;102362.00;;;13.80
20736;BMP180;10528;52.124;5.196;2024-01-30T03:29:22;102364.00;;;13.80
20736;BMP180;10528;52.124;5.196;2024-01-30T03:31:49;102355.00;;;13.80
20736;BMP180;10528;52.124;5.196;2024-01-30T03:34:16;102345.00;;;13.80
20736;BMP180;10528;52.124;5.196;2024-01-30T03:36:43;102341.00;;;13.80
20736;BMP180;10528;52.124;5.196;2024-01-30T03:39:10;102341.00;;;13.80
20736;BMP180;10528;52.124;5.196;2024-01-30T03:41:37;102335.00;;;13.80
20736;BMP180;10528;52.124;5.196;2024-01-30T03:44:05;102335.00;;;13.80
20736;BMP180;10528;52.124;5.196;2024-01-30T03:46:32;102340.00;;;13.80
20736;BMP180;10528;52.124;5.196;2024-01-30T03:48:59;102332.00;;;13.80
20736;BMP180;10528;52.124;5.196;2024-01-30T03:51:26;102346.00;;;13.80
20736;BMP180;10528;52.124;5.196;2024-01-30T03:53:53;102343.00;;;13.80
20736;BMP180;10528;52.124;5.196;2024-01-30T03:56:20;102351.00;;;13.80
20736;BMP180;10528;52.124;5.196;2024-01-30T03:58:47;102342.00;;;13.80
20736;BMP180;10528;52.124;5.196;2024-01-30T04:01:14;102349.00;;;13.90
20736;BMP180;10528;52.124;5.196;2024-01-30T04:03:42;102344.00;;;13.90
20736;BMP180;10528;52.124;5.196;2024-01-30T04:06:11;102357.00;;;13.90
20736;BMP180;10528;52.124;5.196;2024-01-30T04:08:38;102345.00;;;13.90
20736;BMP180;10528;52.124;5.196;2024-01-30T04:11:06;102348.00;;;13.90
20736;BMP180;10528;52.124;5.196;2024-01-30T04:13:33;102342.00;;;13.90
20736;BMP180;10528;52.124;5.196;2024-01-30T04:16:01;102350.00;;;13.90
20736;BMP180;10528;52.124;5.196;2024-01-30T04:18:29;102345.00;;;13.90
20736;BMP180;10528;52.124;5.196;2024-01-30T04:20:56;102346.00;;;13.90
20736;BMP180;10528;52.124;5.196;2024-01-30T04:23:23;102338.00;;;14.00
20736;BMP180;10528;52.124;5.196;2024-01-30T04:25:50;102332.00;;;13.90
20736;BMP180;10528;52.124;5.196;2024-01-30T04:28:18;102345.00;;;13.90
20736;BMP180;10528;52.124;5.196;2024-01-30T04:30:45;102333.00;;;14.00
20736;BMP180;10528;52.124;5.196;2024-01-30T04:33:12;102328.00;;;14.00
20736;BMP180;10528;52.124;5.196;2024-01-30T04:35:39;102314.00;;;14.00
20736;BMP180;10528;52.124;5.196;2024-01-30T04:38:06;102318.00;;;14.00
20736;BMP180;10528;52.124;5.196;2024-01-30T04:40:33;102318.00;;;14.00
20736;BMP180;10528;52.124;5.196;2024-01-30T04:43:00;102316.00;;;14.00
20736;BMP180;10528;52.124;5.196;2024-01-30T04:45:27;102331.00;;;14.00
20736;BMP180;10528;52.124;5.196;2024-01-30T04:47:54;102324.00;;;14.00
20736;BMP180;10528;52.124;5.196;2024-01-30T04:50:21;102319.00;;;14.10
20736;BMP180;10528;52.124;5.196;2024-01-30T04:52:48;102317.00;;;14.10
20736;BMP180;10528;52.124;5.196;2024-01-30T04:55:15;102331.00;;;14.10
20736;BMP180;10528;52.124;5.196;2024-01-30T04:57:42;102324.00;;;14.10
20736;BMP180;10528;52.124;5.196;2024-01-30T05:00:09;102313.00;;;14.10
20736;BMP180;10528;52.124;5.196;2024-01-30T05:02:36;102319.00;;;14.10
20736;BMP180;10528;52.124;5.196;2024-01-30T05:05:04;102325.00;;;14.10
20736;BMP180;10528;52.124;5.196;2024-01-30T05:07:31;102320.00;;;14.10
20736;BMP180;10528;52.124;5.196;2024-01-30T05:09:58;102319.00;;;14.10
20736;BMP180;10528;52.124;5.196;2024-01-30T05:12:29;102314.00;;;14.10
20736;BMP180;10528;52.124;5.196;2024-01-30T05:14:55;102320.00;;;14.10
20736;BMP180;10528;52.124;5.196;2024-01-30T05:17:22;102313.00;;;14.10
20736;BMP180;10528;52.124;5.196;2024-01-30T05:19:49;102317.00;;;14.20
20736;BMP180;10528;52.124;5.196;2024-01-30T05:22:16;102307.00;;;14.10
20736;BMP180;10528;52.124;5.196;2024-01-30T05:24:45;102301.00;;;14.20
20736;BMP180;10528;52.124;5.196;2024-01-30T05:27:12;102298.00;;;14.20
20736;BMP180;10528;52.124;5.196;2024-01-30T05:29:40;102305.00;;;14.20
20736;BMP180;10528;52.124;5.196;2024-01-30T05:32:07;102310.00;;;14.20
20736;BMP180;10528;52.124;5.196;2024-01-30T05:34:35;102317.00;;;14.20
20736;BMP180;10528;52.124;5.196;2024-01-30T05:37:03;102316.00;;;14.20
20736;BMP180;10528;52.124;5.196;2024-01-30T05:39:30;102318.00;;;14.20
20736;BMP180;10528;52.124;5.196;2024-01-30T05:41:59;102316.00;;;14.20
20736;BMP180;10528;52.124;5.196;2024-01-30T05:44:26;102319.00;;;14.30
20736;BMP180;10528;52.124;5.196;2024-01-30T05:46:53;102312.00;;;14.30
20736;BMP180;10528;52.124;5.196;2024-01-30T05:49:20;102322.00;;;14.30
20736;BMP180;10528;52.124;5.196;2024-01-30T05:51:47;102314.00;;;14.30
20736;BMP180;10528;52.124;5.196;2024-01-30T05:54:14;102310.00;;;14.30
20736;BMP180;10528;52.124;5.196;2024-01-30T05:56:43;102323.00;;;14.30
20736;BMP180;10528;52.124;5.196;2024-01-30T05:59:10;102320.00;;;14.30
20736;BMP180;10528;52.124;5.196;2024-01-30T06:01:37;102317.00;;;14.30
20736;BMP180;10528;52.124;5.196;2024-01-30T06:04:04;102334.00;;;14.40
20736;BMP180;10528;52.124;5.196;2024-01-30T06:06:31;102321.00;;;14.40
20736;BMP180;10528;52.124;5.196;2024-01-30T06:08:58;102320.00;;;14.40
20736;BMP180;10528;52.124;5.196;2024-01-30T06:11:25;102326.00;;;14.40
20736;BMP180;10528;52.124;5.196;2024-01-30T06:13:52;102323.00;;;14.40
20736;BMP180;10528;52.124;5.196;2024-01-30T06:16:19;102327.00;;;14.40
20736;BMP180;10528;52.124;5.196;2024-01-30T06:18:48;102326.00;;;14.40
20736;BMP180;10528;52.124;5.196;2024-01-30T06:21:15;102320.00;;;14.40
20736;BMP180;10528;52.124;5.196;2024-01-30T06:23:41;102317.00;;;14.40
20736;BMP180;10528;52.124;5.196;2024-01-30T06:26:08;102317.00;;;14.40
20736;BMP180;10528;52.124;5.196;2024-01-30T06:28:35;102320.00;;;14.50
20736;BMP180;10528;52.124;5.196;2024-01-30T06:31:02;102323.00;;;14.50
20736;BMP180;10528;52.124;5.196;2024-01-30T06:33:29;102319.00;;;14.40
20736;BMP180;10528;52.124;5.196;2024-01-30T06:35:56;102324.00;;;14.50
20736;BMP180;10528;52.124;5.196;2024-01-30T06:38:23;102324.00;;;14.50
20736;BMP180;10528;52.124;5.196;2024-01-30T06:40:50;102330.00;;;14.50
20736;BMP180;10528;52.124;5.196;2024-01-30T06:43:17;102335.00;;;14.50
20736;BMP180;10528;52.124;5.196;2024-01-30T06:45:44;102332.00;;;14.50
20736;BMP180;10528;52.124;5.196;2024-01-30T06:48:11;102337.00;;;14.50
20736;BMP180;10528;52.124;5.196;2024-01-30T06:50:38;102333.00;;;14.50
20736;BMP180;10528;52.124;5.196;2024-01-30T06:53:05;102337.00;;;14.50
20736;BMP180;10528;52.124;5.196;2024-01-30T06:55:32;102344.00;;;14.50
20736;BMP180;10528;52.124;5.196;2024-01-30T06:57:59;102343.00;;;14.60
20736;BMP180;10528;52.124;5.196;2024-01-30T07:00:26;102347.00;;;14.60
20736;BMP180;10528;52.124;5.196;2024-01-30T07:02:53;102333.00;;;14.60
20736;BMP180;10528;52.124;5.196;2024-01-30T07:05:20;102329.00;;;14.60
20736;BMP180;10528;52.124;5.196;2024-01-30T07:07:48;102343.00;;;14.60
20736;BMP180;10528;52.124;5.196;2024-01-30T07:10:15;102335.00;;;14.60
20736;BMP180;10528;52.124;5.196;2024-01-30T07:12:42;102334.00;;;14.60
20736;BMP180;10528;52.124;5.196;2024-01-30T07:15:12;102325.00;;;14.60
20736;BMP180;10528;52.124;5.196;2024-01-30T07:17:43;102336.00;;;14.60
20736;BMP180;10528;52.124;5.196;2024-01-30T07:20:10;102342.00;;;14.70
20736;BMP180;10528;52.124;5.196;2024-01-30T07:22:43;102340.00;;;14.70
20736;BMP180;10528;52.124;5.196;2024-01-30T07:25:11;102345.00;;;14.70
20736;BMP180;10528;52.124;5.196;2024-01-30T07:27:38;102351.00;;;14.70
20736;BMP180;10528;52.124;5.196;2024-01-30T07:30:06;102353.00;;;14.70
20736;BMP180;10528;52.124;5.196;2024-01-30T07:32:33;102352.00;;;14.70
20736;BMP180;10528;52.124;5.196;2024-01-30T07:35:00;102349.00;;;14.70
20736;BMP180;10528;52.124;5.196;2024-01-30T07:37:35;102354.00;;;14.80
20736;BMP180;10528;52.124;5.196;2024-01-30T07:40:03;102364.00;;;14.80
20736;BMP180;10528;52.124;5.196;2024-01-30T07:42:31;102377.00;;;14.80
20736;BMP180;10528;52.124;5.196;2024-01-30T07:44:58;102363.00;;;14.80
20736;BMP180;10528;52.124;5.196;2024-01-30T07:47:25;102364.00;;;14.80
20736;BMP180;10528;52.124;5.196;2024-01-30T07:49:52;102370.00;;;14.90
20736;BMP180;10528;52.124;5.196;2024-01-30T07:52:21;102378.00;;;14.90
20736;BMP180;10528;52.124;5.196;2024-01-30T07:54:48;102383.00;;;14.90
20736;BMP180;10528;52.124;5.196;2024-01-30T07:57:16;102372.00;;;14.90
20736;BMP180;10528;52.124;5.196;2024-01-30T07:59:44;102371.00;;;15.00
20736;BMP180;10528;52.124;5.196;2024-01-30T08:02:14;102365.00;;;15.00
20736;BMP180;10528;52.124;5.196;2024-01-30T08:04:41;102381.00;;;15.00
20736;BMP180;10528;52.124;5.196;2024-01-30T08:07:08;102377.00;;;15.10
20736;BMP180;10528;52.124;5.196;2024-01-30T08:09:36;102378.00;;;15.10
20736;BMP180;10528;52.124;5.196;2024-01-30T08:12:03;102378.00;;;15.20
20736;BMP180;10528;52.124;5.196;2024-01-30T08:14:30;102370.00;;;15.20
20736;BMP180;10528;52.124;5.196;2024-01-30T08:16:57;102378.00;;;15.20
20736;BMP180;10528;52.124;5.196;2024-01-30T08:19:24;102376.00;;;15.30
20736;BMP180;10528;52.124;5.196;2024-01-30T08:21:51;102378.00;;;15.30
20736;BMP180;10528;52.124;5.196;2024-01-30T08:24:18;102377.00;;;15.40
20736;BMP180;10528;52.124;5.196;2024-01-30T08:26:45;102358.00;;;15.40
20736;BMP180;10528;52.124;5.196;2024-01-30T08:29:12;102382.00;;;15.40
20736;BMP180;10528;52.124;5.196;2024-01-30T08:31:39;102382.00;;;15.40
20736;BMP180;10528;52.124;5.196;2024-01-30T08:34:06;102377.00;;;15.50
20736;BMP180;10528;52.124;5.196;2024-01-30T08:36:33;102376.00;;;15.50
20736;BMP180;10528;52.124;5.196;2024-01-30T08:39:00;102383.00;;;15.50
20736;BMP180;10528;52.124;5.196;2024-01-30T08:41:30;102383.00;;;15.60
20736;BMP180;10528;52.124;5.196;2024-01-30T08:43:57;102373.00;;;15.60
20736;BMP180;10528;52.124;5.196;2024-01-30T08:46:24;102384.00;;;15.60
20736;BMP180;10528;52.124;5.196;2024-01-30T08:48:52;102385.00;;;15.70
20736;BMP180;10528;52.124;5.196;2024-01-30T08:51:20;102383.00;;;15.70
20736;BMP180;10528;52.124;5.196;2024-01-30T08:53:46;102382.00;;;15.70
20736;BMP180;10528;52.124;5.196;2024-01-30T08:56:14;102393.00;;;15.80
20736;BMP180;10528;52.124;5.196;2024-01-30T08:58:42;102400.00;;;15.80
20736;BMP180;10528;52.124;5.196;2024-01-30T09:01:09;102402.00;;;15.80
20736;BMP180;10528;52.124;5.196;2024-01-30T09:03:36;102398.00;;;15.90
20736;BMP180;10528;52.124;5.196;2024-01-30T09:06:10;102394.00;;;15.90
20736;BMP180;10528;52.124;5.196;2024-01-30T09:08:39;102389.00;;;15.90
20736;BMP180;10528;52.124;5.196;2024-01-30T09:11:13;102396.00;;;15.90
20736;BMP180;10528;52.124;5.196;2024-01-30T09:13:40;102399.00;;;16.00
20736;BMP180;10528;52.124;5.196;2024-01-30T09:16:07;102396.00;;;16.00
20736;BMP180;10528;52.124;5.196;2024-01-30T09:18:35;102403.00;;;16.00
20736;BMP180;10528;52.124;5.196;2024-01-30T09:21:02;102414.00;;;16.00
20736;BMP180;10528;52.124;5.196;2024-01-30T09:23:29;102405.00;;;16.00
20736;BMP180;10528;52.124;5.196;2024-01-30T09:25:56;102406.00;;;16.00
20736;BMP180;10528;52.124;5.196;2024-01-30T09:28:23;102407.00;;;16.00
20736;BMP180;10528;52.124;5.196;2024-01-30T09:30:53;102403.00;;;16.00
20736;BMP180;10528;52.124;5.196;2024-01-30T09:33:20;102415.00;;;16.00
20736;BMP180;10528;52.124;5.196;2024-01-30T09:35:47;102413.00;;;16.00
20736;BMP180;10528;52.124;5.196;2024-01-30T09:38:14;102409.00;;;16.10
20736;BMP180;10528;52.124;5.196;2024-01-30T09:40:41;102415.00;;;16.10
20736;BMP180;10528;52.124;5.196;2024-01-30T09:43:15;102417.00;;;16.10
20736;BMP180;10528;52.124;5.196;2024-01-30T09:45:46;102423.00;;;16.10
20736;BMP180;10528;52.124;5.196;2024-01-30T09:48:15;102422.00;;;16.20
20736;BMP180;10528;52.124;5.196;2024-01-30T09:50:42;102433.00;;;16.20
20736;BMP180;10528;52.124;5.196;2024-01-30T09:53:10;102422.00;;;16.20
20736;BMP180;10528;52.124;5.196;2024-01-30T09:55:39;102432.00;;;16.30
20736;BMP180;10528;52.124;5.196;2024-01-30T09:58:09;102437.00;;;16.30
20736;BMP180;10528;52.124;5.196;2024-01-30T10:00:36;102437.00;;;16.30
20736;BMP180;10528;52.124;5.196;2024-01-30T10:03:03;102434.00;;;16.30
20736;BMP180;10528;52.124;5.196;2024-01-30T10:05:32;102437.00;;;16.30
20736;BMP180;10528;52.124;5.196;2024-01-30T10:08:07;102438.00;;;16.40
20736;BMP180;10528;52.124;5.196;2024-01-30T10:10:35;102432.00;;;16.40
20736;BMP180;10528;52.124;5.196;2024-01-30T10:13:02;102424.00;;;16.40
20736;BMP180;10528;52.124;5.196;2024-01-30T10:15:31;102427.00;;;16.50
20736;BMP180;10528;52.124;5.196;2024-01-30T10:17:58;102438.00;;;16.50
20736;BMP180;10528;52.124;5.196;2024-01-30T10:20:25;102426.00;;;16.60
20736;BMP180;10528;52.124;5.196;2024-01-30T10:22:52;102425.00;;;16.60
20736;BMP180;10528;52.124;5.196;2024-01-30T10:25:21;102427.00;;;16.70
20736;BMP180;10528;52.124;5.196;2024-01-30T10:27:53;102441.00;;;16.60
20736;BMP180;10528;52.124;5.196;2024-01-30T10:30:23;102443.00;;;16.70
20736;BMP180;10528;52.124;5.196;2024-01-30T10:32:51;102445.00;;;16.70
20736;BMP180;10528;52.124;5.196;2024-01-30T10:35:18;102436.00;;;16.70
20736;BMP180;10528;52.124;5.196;2024-01-30T10:37:48;102446.00;;;16.70
20736;BMP180;10528;52.124;5.196;2024-01-30T10:40:16;102437.00;;;16.80
20736;BMP180;10528;52.124;5.196;2024-01-30T10:42:45;102427.00;;;16.70
20736;BMP180;10528;52.124;5.196;2024-01-30T10:45:14;102448.00;;;16.70
20736;BMP180;10528;52.124;5.196;2024-01-30T10:47:49;102451.00;;;16.70
20736;BMP180;10528;52.124;5.196;2024-01-30T10:50:17;102453.00;;;16.70
20736;BMP180;10528;52.124;5.196;2024-01-30T10:52:45;102451.00;;;16.70
20736;BMP180;10528;52.124;5.196;2024-01-30T10:55:15;102451.00;;;16.70
20736;BMP180;10528;52.124;5.196;2024-01-30T10:57:42;102463.00;;;16.80
20736;BMP180;10528;52.124;5.196;2024-01-30T11:00:14;102466.00;;;16.70
20736;BMP180;10528;52.124;5.196;2024-01-30T11:02:46;102470.00;;;16.70
20736;BMP180;10528;52.124;5.196;2024-01-30T11:05:14;102467.00;;;16.60
20736;BMP180;10528;52.124;5.196;2024-01-30T11:07:44;102466.00;;;16.60
20736;BMP180;10528;52.124;5.196;2024-01-30T11:10:12;102476.00;;;16.60
20736;BMP180;10528;52.124;5.196;2024-01-30T11:12:42;102476.00;;;16.60
20736;BMP180;10528;52.124;5.196;2024-01-30T11:15:16;102481.00;;;16.70
20736;BMP180;10528;52.124;5.196;2024-01-30T11:20:22;102487.00;;;16.70
20736;BMP180;10528;52.124;5.196;2024-01-30T11:22:54;102482.00;;;16.70
20736;BMP180;10528;52.124;5.196;2024-01-30T11:25:24;102490.00;;;16.70
20736;BMP180;10528;52.124;5.196;2024-01-30T11:27:56;102484.00;;;16.70
20736;BMP180;10528;52.124;5.196;2024-01-30T11:30:29;102487.00;;;16.70
20736;BMP180;10528;52.124;5.196;2024-01-30T11:35:40;102490.00;;;16.60
20736;BMP180;10528;52.124;5.196;2024-01-30T11:38:13;102483.00;;;16.40
20736;BMP180;10528;52.124;5.196;2024-01-30T11:40:41;102495.00;;;16.50
20736;BMP180;10528;52.124;5.196;2024-01-30T11:43:09;102491.00;;;16.50
20736;BMP180;10528;52.124;5.196;2024-01-30T11:45:37;102487.00;;;16.50
20736;BMP180;10528;52.124;5.196;2024-01-30T11:48:05;102498.00;;;16.50
20736;BMP180;10528;52.124;5.196;2024-01-30T11:50:33;102490.00;;;16.50
20736;BMP180;10528;52.124;5.196;2024-01-30T11:53:02;102485.00;;;16.60
20736;BMP180;10528;52.124;5.196;2024-01-30T11:55:29;102502.00;;;16.60
20736;BMP180;10528;52.124;5.196;2024-01-30T11:58:02;102498.00;;;16.50
20736;BMP180;10528;52.124;5.196;2024-01-30T12:00:31;102509.00;;;16.50
20736;BMP180;10528;52.124;5.196;2024-01-30T12:02:59;102508.00;;;16.50
20736;BMP180;10528;52.124;5.196;2024-01-30T12:05:28;102509.00;;;16.40
20736;BMP180;10528;52.124;5.196;2024-01-30T12:07:56;102518.00;;;16.30
20736;BMP180;10528;52.124;5.196;2024-01-30T12:10:26;102527.00;;;15.90
20736;BMP180;10528;52.124;5.196;2024-01-30T12:12:54;102535.00;;;16.00
20736;BMP180;10528;52.124;5.196;2024-01-30T12:15:22;102533.00;;;16.00
20736;BMP180;10528;52.124;5.196;2024-01-30T12:17:50;102520.00;;;16.00
20736;BMP180;10528;52.124;5.196;2024-01-30T12:20:20;102536.00;;;16.00
20736;BMP180;10528;52.124;5.196;2024-01-30T12:22:49;102517.00;;;15.90
20736;BMP180;10528;52.124;5.196;2024-01-30T12:25:20;102528.00;;;15.90
20736;BMP180;10528;52.124;5.196;2024-01-30T12:27:50;102533.00;;;15.90
20736;BMP180;10528;52.124;5.196;2024-01-30T12:30:20;102536.00;;;15.90
20736;BMP180;10528;52.124;5.196;2024-01-30T12:32:50;102531.00;;;15.90
20736;BMP180;10528;52.124;5.196;2024-01-30T12:35:20;102537.00;;;15.90
20736;BMP180;10528;52.124;5.196;2024-01-30T12:37:49;102527.00;;;15.90
20736;BMP180;10528;52.124;5.196;2024-01-30T12:40:17;102537.00;;;15.90
20736;BMP180;10528;52.124;5.196;2024-01-30T12:42:47;102528.00;;;15.90
20736;BMP180;10528;52.124;5.196;2024-01-30T12:45:17;102538.00;;;16.00
20736;BMP180;10528;52.124;5.196;2024-01-30T12:47:50;102547.00;;;16.00
20736;BMP180;10528;52.124;5.196;2024-01-30T12:50:17;102535.00;;;16.00
20736;BMP180;10528;52.124;5.196;2024-01-30T12:52:45;102544.00;;;16.00
20736;BMP180;10528;52.124;5.196;2024-01-30T12:55:16;102548.00;;;16.00
20736;BMP180;10528;52.124;5.196;2024-01-30T12:57:43;102552.00;;;15.90
20736;BMP180;10528;52.124;5.196;2024-01-30T13:00:11;102553.00;;;16.00
20736;BMP180;10528;52.124;5.196;2024-01-30T13:02:38;102554.00;;;16.00
20736;BMP180;10528;52.124;5.196;2024-01-30T13:05:06;102549.00;;;16.00
20736;BMP180;10528;52.124;5.196;2024-01-30T13:07:34;102547.00;;;16.00
20736;BMP180;10528;52.124;5.196;2024-01-30T13:10:02;102541.00;;;16.00
20736;BMP180;10528;52.124;5.196;2024-01-30T13:12:31;102545.00;;;16.00
20736;BMP180;10528;52.124;5.196;2024-01-30T13:15:02;102537.00;;;16.00
20736;BMP180;10528;52.124;5.196;2024-01-30T13:17:32;102533.00;;;16.00
20736;BMP180;10528;52.124;5.196;2024-01-30T13:19:59;102547.00;;;16.00
20736;BMP180;10528;52.124;5.196;2024-01-30T13:22:37;102543.00;;;16.00
20736;BMP180;10528;52.124;5.196;2024-01-30T13:25:06;102537.00;;;16.00
20736;BMP180;10528;52.124;5.196;2024-01-30T13:27:34;102553.00;;;15.80
20736;BMP180;10528;52.124;5.196;2024-01-30T13:30:01;102559.00;;;15.80
20736;BMP180;10528;52.124;5.196;2024-01-30T13:32:28;102560.00;;;15.80
20736;BMP180;10528;52.124;5.196;2024-01-30T13:34:55;102561.00;;;15.80
20736;BMP180;10528;52.124;5.196;2024-01-30T13:37:22;102558.00;;;15.80
20736;BMP180;10528;52.124;5.196;2024-01-30T13:39:50;102552.00;;;15.80
20736;BMP180;10528;52.124;5.196;2024-01-30T13:42:17;102554.00;;;15.80
20736;BMP180;10528;52.124;5.196;2024-01-30T13:44:44;102559.00;;;15.80
20736;BMP180;10528;52.124;5.196;2024-01-30T13:47:11;102558.00;;;15.60
20736;BMP180;10528;52.124;5.196;2024-01-30T13:49:38;102556.00;;;15.70
20736;BMP180;10528;52.124;5.196;2024-01-30T13:52:05;102579.00;;;15.70
20736;BMP180;10528;52.124;5.196;2024-01-30T13:54:32;102572.00;;;15.70
20736;BMP180;10528;52.124;5.196;2024-01-30T13:56:59;102572.00;;;15.70
20736;BMP180;10528;52.124;5.196;2024-01-30T13:59:27;102578.00;;;15.70
20736;BMP180;10528;52.124;5.196;2024-01-30T14:01:54;102577.00;;;15.70
20736;BMP180;10528;52.124;5.196;2024-01-30T14:04:21;102582.00;;;15.70